Time;durP1;ratioP1;P1;durP2;ratioP2;P2;SDS_P1;SDS_P2;PMS_P1;PMS_P2;Temp;Humidity;BMP_temperature;BMP_pressure;BME280_temperature;BME280_humidity;BME280_pressure;Samples;Min_cycle;Max_cycle;Signal;HPM_P1;HPM_P2
2020/12/18 00:01:32;;;;;;;54.30;23.65;;;;;;;1.48;72.74;102323.84;1725297;82;20974;-79
2020/12/18 00:04:00;;;;;;;42.90;18.92;;;;;;;1.48;72.64;102321.25;1725334;82;21037;-79
2020/12/18 00:06:38;;;;;;;62.58;22.98;;;;;;;1.47;72.78;102321.23;1733489;80;20982;-81
2020/12/18 00:09:05;;;;;;;53.52;22.05;;;;;;;1.47;72.65;102326.00;1736521;81;21035;-80
2020/12/18 00:11:34;;;;;;;58.48;22.82;;;;;;;1.48;72.72;102329.45;1738902;81;21057;-81
2020/12/18 00:14:03;;;;;;;50.92;22.22;;;;;;;1.48;72.75;102332.89;1739384;81;20911;-81
2020/12/18 00:16:33;;;;;;;41.18;19.37;;;;;;;1.52;72.58;102329.47;1739848;81;20966;-81
2020/12/18 00:19:01;;;;;;;36.15;19.35;;;;;;;1.53;72.44;102332.91;1739200;81;21384;-81
2020/12/18 00:21:29;;;;;;;45.70;21.75;;;;;;;1.51;72.56;102331.59;1739173;81;21852;-80
2020/12/18 00:23:57;;;;;;;52.33;23.70;;;;;;;1.46;72.62;102333.30;1739077;81;20986;-80
2020/12/18 00:26:25;;;;;;;45.45;22.42;;;;;;;1.43;72.71;102331.58;1739042;81;21373;-81
2020/12/18 00:28:53;;;;;;;28.90;16.70;;;;;;;1.46;72.70;102334.59;1690628;81;20965;-81
2020/12/18 00:31:26;;;;;;;23.77;13.65;;;;;;;1.41;72.59;102331.98;1739148;81;21006;-81
2020/12/18 00:33:55;;;;;;;16.03;10.43;;;;;;;1.39;72.61;102324.66;1739311;81;20987;-82
2020/12/18 00:36:23;;;;;;;16.55;11.38;;;;;;;1.34;72.62;102321.63;1739216;81;20977;-81
2020/12/18 00:38:51;;;;;;;15.28;10.43;;;;;;;1.34;72.65;102317.75;1739246;81;21436;-81
2020/12/18 00:41:21;;;;;;;16.80;11.45;;;;;;;1.33;72.75;102317.29;1739265;81;20938;-82
2020/12/18 00:43:49;;;;;;;11.15;7.90;;;;;;;1.36;72.74;102320.77;1740338;81;21063;-81
2020/12/18 00:46:17;;;;;;;12.20;7.97;;;;;;;1.41;72.59;102319.50;1742714;75;21709;-77
2020/12/18 00:48:47;;;;;;;10.23;7.45;;;;;;;1.41;72.49;102316.48;1742834;81;20946;-77
2020/12/18 00:51:17;;;;;;;12.80;8.80;;;;;;;1.41;72.39;102322.94;1742746;80;20966;-78
2020/12/18 00:53:45;;;;;;;13.55;9.08;;;;;;;1.41;72.34;102320.36;1741963;81;20926;-78
2020/12/18 00:56:13;;;;;;;10.43;7.20;;;;;;;1.38;72.31;102317.77;1740733;81;21372;-79
2020/12/18 00:58:44;;;;;;;10.32;7.85;;;;;;;1.38;72.37;102313.00;1740782;81;21969;-77
2020/12/18 01:01:12;;;;;;;10.32;7.60;;;;;;;1.36;72.20;102305.27;1740918;81;21006;-77
2020/12/18 01:03:40;;;;;;;9.38;7.45;;;;;;;1.36;71.87;102304.41;1715432;81;21025;-78
2020/12/18 01:06:10;;;;;;;8.93;6.05;;;;;;;1.34;71.78;102303.53;1757857;79;21136;-79
2020/12/18 01:08:41;;;;;;;10.68;7.90;;;;;;;1.32;71.61;102304.80;1741857;76;21005;-80
2020/12/18 01:11:11;;;;;;;12.20;7.30;;;;;;;1.31;71.59;102300.51;1680037;84;21096;-80
2020/12/18 01:13:40;;;;;;;14.63;9.38;;;;;;;1.31;71.53;102303.09;1680133;84;21053;-79
2020/12/18 01:16:12;;;;;;;15.13;9.53;;;;;;;1.34;71.61;102302.23;1680100;84;21074;-81
2020/12/18 01:18:42;;;;;;;10.28;6.58;;;;;;;1.35;71.82;102296.20;1679706;84;21005;-81
2020/12/18 01:21:12;;;;;;;9.78;7.00;;;;;;;1.32;71.19;102300.92;1677392;84;20954;-80
2020/12/18 01:23:41;;;;;;;11.68;8.18;;;;;;;1.28;71.13;102299.17;1680002;84;21025;-81
2020/12/18 01:26:11;;;;;;;9.55;7.70;;;;;;;1.27;71.22;102301.74;1679994;84;21196;-80
2020/12/18 01:28:40;;;;;;;10.38;7.80;;;;;;;1.26;71.29;102303.91;1680069;84;21041;-82
2020/12/18 01:31:08;;;;;;;10.80;7.90;;;;;;;1.26;71.29;102303.47;1679987;84;20938;-81
2020/12/18 01:33:37;;;;;;;12.33;8.78;;;;;;;1.25;71.27;102306.92;1680361;84;21448;-82
2020/12/18 01:36:08;;;;;;;10.30;7.03;;;;;;;1.24;71.40;102307.36;1679214;84;21020;-81
2020/12/18 01:38:38;;;;;;;12.15;8.35;;;;;;;1.25;71.35;102301.76;1679952;84;20993;-81
2020/12/18 01:41:06;;;;;;;12.85;9.43;;;;;;;1.26;71.24;102304.77;1657202;84;20977;-82
2020/12/18 01:43:35;;;;;;;11.88;8.63;;;;;;;1.24;71.15;102303.48;1679915;84;21001;-83
2020/12/18 01:46:10;;;;;;;11.53;7.22;;;;;;;1.22;71.02;102308.18;1680137;84;20962;-82
2020/12/18 01:48:39;;;;;;;10.53;7.42;;;;;;;1.24;71.00;102298.72;1658285;84;21527;-80
2020/12/18 01:51:09;;;;;;;8.75;6.40;;;;;;;1.27;71.00;102292.30;1680152;84;21531;-79
2020/12/18 01:53:39;;;;;;;10.13;6.65;;;;;;;1.30;70.85;102303.93;1679912;84;21009;-79
2020/12/18 01:56:15;;;;;;;8.10;5.67;;;;;;;1.30;70.54;102297.91;1679594;84;20970;-81
2020/12/18 01:58:46;;;;;;;10.82;7.05;;;;;;;1.25;70.22;102306.92;1679805;84;20954;-79
2020/12/18 02:01:16;;;;;;;8.25;6.03;;;;;;;1.20;70.22;102303.42;1679203;84;21095;-79
2020/12/18 02:03:45;;;;;;;8.28;5.83;;;;;;;1.14;70.40;102300.39;1676917;84;20970;-78
2020/12/18 02:06:21;;;;;;;7.97;5.45;;;;;;;1.12;70.35;102299.52;1679913;84;20958;-80
2020/12/18 02:08:50;;;;;;;7.95;6.00;;;;;;;1.10;70.14;102305.10;1683897;83;21008;-80
2020/12/18 02:11:24;;;;;;;7.35;5.20;;;;;;;1.09;69.93;102299.52;1697523;83;21624;-81
2020/12/18 02:13:54;;;;;;;8.15;5.62;;;;;;;1.10;69.82;102302.52;1697254;83;21159;-80
2020/12/18 02:16:24;;;;;;;7.35;4.90;;;;;;;1.12;69.82;102303.39;1721350;83;20980;-80
2020/12/18 02:18:56;;;;;;;5.85;5.00;;;;;;;1.15;69.61;102303.84;1697265;83;20969;-80
2020/12/18 02:21:24;;;;;;;6.67;5.37;;;;;;;1.14;69.88;102301.69;1721387;83;20989;-81
2020/12/18 02:23:53;;;;;;;8.75;5.67;;;;;;;1.14;69.82;102294.37;1721470;83;21017;-81
2020/12/18 02:26:22;;;;;;;6.12;5.40;;;;;;;1.15;69.83;102295.65;1721465;83;22840;-80
2020/12/18 02:28:51;;;;;;;8.43;6.10;;;;;;;1.17;69.74;102302.98;1697231;83;21076;-81
2020/12/18 02:31:22;;;;;;;6.78;5.03;;;;;;;1.19;69.69;102305.16;1725835;83;21017;-79
2020/12/18 02:34:09;;;;;;;5.28;4.72;;;;;;;1.20;69.52;102309.89;1721300;83;20969;-80
2020/12/18 02:36:39;;;;;;;7.53;4.90;;;;;;;1.21;69.22;102307.76;1697215;83;20969;-80
2020/12/18 02:39:08;;;;;;;5.97;4.17;;;;;;;1.21;69.17;102315.08;1721353;83;21515;-81
2020/12/18 02:41:38;;;;;;;7.20;5.05;;;;;;;1.21;69.16;102312.48;1697223;83;21502;-81
2020/12/18 02:44:08;;;;;;;7.30;4.62;;;;;;;1.21;69.23;102315.51;1695955;83;20961;-80
2020/12/18 02:46:38;;;;;;;9.13;4.95;;;;;;;1.21;69.16;102317.66;1697166;83;20937;-79
2020/12/18 02:49:07;;;;;;;7.87;4.90;;;;;;;1.17;69.15;102312.03;1697209;83;20961;-80
2020/12/18 02:51:43;;;;;;;9.83;6.17;;;;;;;1.16;69.36;102310.75;1697195;83;22031;-81
2020/12/18 02:54:53;;;;;;;9.48;6.65;;;;;;;1.23;69.66;102300.88;1790637;79;22713;-79
2020/12/18 02:57:37;;;;;;;8.23;5.40;;;;;;;1.22;69.68;102312.05;1706526;81;21101;-80
2020/12/18 03:00:07;;;;;;;7.65;5.92;;;;;;;1.26;69.61;102311.22;1682072;82;21173;-79
2020/12/18 03:02:37;;;;;;;8.53;6.28;;;;;;;1.24;69.32;102306.47;1728017;81;21038;-79
2020/12/18 03:05:07;;;;;;;8.75;6.10;;;;;;;1.21;69.27;102312.92;1677510;83;21042;-81
2020/12/18 03:07:53;;;;;;;7.33;5.70;;;;;;;1.21;69.46;102313.78;1700182;83;21432;-81
2020/12/18 03:10:21;;;;;;;9.30;5.58;;;;;;;1.24;69.34;102315.11;1701682;83;21082;-81
2020/12/18 03:12:49;;;;;;;9.28;6.50;;;;;;;1.26;69.42;102308.64;1700004;83;21154;-81
2020/12/18 03:15:18;;;;;;;8.30;6.80;;;;;;;1.30;69.33;102303.93;1699328;82;20997;-80
2020/12/18 03:17:51;;;;;;;11.28;6.72;;;;;;;1.38;69.07;102310.42;1711189;82;20966;-81
2020/12/18 03:20:19;;;;;;;8.73;6.35;;;;;;;1.38;68.86;102315.19;1675165;82;21006;-80
2020/12/18 03:22:49;;;;;;;7.85;6.37;;;;;;;1.38;68.78;102310.02;1709950;81;21073;-81
2020/12/18 03:25:19;;;;;;;10.63;6.45;;;;;;;1.36;68.83;102312.16;1689741;83;21658;-79
2020/12/18 03:27:52;;;;;;;9.20;6.05;;;;;;;1.35;69.00;102306.54;1701228;81;20927;-77
2020/12/18 03:30:21;;;;;;;9.75;7.03;;;;;;;1.34;69.58;102309.99;1671017;83;20976;-78
2020/12/18 03:32:51;;;;;;;9.13;6.50;;;;;;;1.36;69.71;102314.31;1679767;83;21077;-78
2020/12/18 03:35:21;;;;;;;9.73;6.17;;;;;;;1.34;69.20;102307.41;1682640;83;21038;-77
2020/12/18 03:37:51;;;;;;;9.60;7.25;;;;;;;1.33;69.08;102308.25;1710794;81;21702;-78
2020/12/18 03:40:21;;;;;;;8.93;6.53;;;;;;;1.30;68.94;102309.09;1678669;82;21014;-80
2020/12/18 03:42:51;;;;;;;6.95;5.00;;;;;;;1.29;69.03;102304.80;1708503;81;21050;-78
2020/12/18 03:45:21;;;;;;;8.40;6.35;;;;;;;1.30;68.63;102302.64;1685278;83;21165;-78
2020/12/18 03:48:09;;;;;;;7.65;6.17;;;;;;;1.31;68.49;102291.86;1678005;83;21075;-81
2020/12/18 03:50:49;;;;;;;11.05;7.87;;;;;;;1.35;68.60;102302.66;1706266;82;21978;-81
2020/12/18 03:53:18;;;;;;;10.00;7.97;;;;;;;1.39;68.76;102300.53;1725699;81;21061;-77
2020/12/18 03:55:49;;;;;;;13.13;9.38;;;;;;;1.40;68.88;102299.66;1703180;81;21256;-80
2020/12/18 03:58:21;;;;;;;13.68;9.03;;;;;;;1.42;68.91;102296.25;1657413;82;21038;-79
2020/12/18 04:00:51;;;;;;;11.45;8.80;;;;;;;1.47;68.98;102299.27;1731148;81;20919;-79
2020/12/18 04:03:20;;;;;;;13.08;9.68;;;;;;;1.50;68.78;102297.57;1727495;81;22980;-79
2020/12/18 04:05:49;;;;;;;15.55;9.45;;;;;;;1.53;68.69;102301.89;1698674;82;21700;-79
2020/12/18 04:08:20;;;;;;;18.67;10.90;;;;;;;1.57;68.57;102298.03;1705281;81;21042;-79
2020/12/18 04:11:09;;;;;;;17.15;10.90;;;;;;;1.57;68.43;102292.00;1708285;81;21054;-79
2020/12/18 04:13:42;;;;;;;17.35;11.45;;;;;;;1.57;68.43;102295.88;1719439;81;20954;-78
2020/12/18 04:16:10;;;;;;;16.42;11.65;;;;;;;1.58;68.42;102302.77;1722484;81;21098;-78
2020/12/18 04:18:38;;;;;;;18.00;12.40;;;;;;;1.58;68.34;102301.47;1703313;82;21057;-79
2020/12/18 04:21:08;;;;;;;20.75;13.38;;;;;;;1.56;68.41;102292.44;1714713;82;21175;-80
2020/12/18 04:23:38;;;;;;;21.93;14.38;;;;;;;1.57;68.29;102292.86;1723530;81;21065;-79
2020/12/18 04:26:08;;;;;;;21.30;13.75;;;;;;;1.56;68.28;102292.44;1711359;81;21508;-80
2020/12/18 04:28:36;;;;;;;20.40;13.55;;;;;;;1.57;68.43;102296.73;1692176;82;22096;-80
2020/12/18 04:31:04;;;;;;;21.90;15.63;;;;;;;1.58;68.39;102288.14;1728214;81;21512;-78
2020/12/18 04:33:33;;;;;;;22.25;15.15;;;;;;;1.59;68.40;102294.16;1686369;82;21506;-80
2020/12/18 04:36:01;;;;;;;29.05;17.92;;;;;;;1.59;68.53;102298.90;1683795;83;21062;-80
2020/12/18 04:38:31;;;;;;;20.68;12.55;;;;;;;1.60;68.49;102308.41;1713842;81;21212;-79
2020/12/18 04:41:07;;;;;;;25.20;16.05;;;;;;;1.62;68.37;102311.86;1708637;81;21157;-78
2020/12/18 04:43:38;;;;;;;25.32;17.00;;;;;;;1.60;68.23;102301.94;1709358;81;21066;-80
2020/12/18 04:46:10;;;;;;;31.33;19.12;;;;;;;1.59;68.24;102302.78;1719053;81;21069;-81
2020/12/18 04:48:38;;;;;;;25.97;17.87;;;;;;;1.58;68.59;102307.53;1718339;81;21562;-79
2020/12/18 04:51:08;;;;;;;17.32;12.18;;;;;;;1.55;68.80;102305.34;1722913;81;21515;-79
2020/12/18 04:53:39;;;;;;;14.63;10.72;;;;;;;1.54;68.49;102308.37;1631890;83;22719;-78
2020/12/18 04:56:10;;;;;;;13.35;10.28;;;;;;;1.50;68.41;102311.79;1728008;81;21610;-79
2020/12/18 04:58:40;;;;;;;14.47;9.95;;;;;;;1.48;68.14;102310.06;1724175;81;20962;-79
2020/12/18 05:01:11;;;;;;;13.83;10.55;;;;;;;1.42;68.12;102316.05;1695548;83;21107;-79
2020/12/18 05:03:47;;;;;;;15.32;10.63;;;;;;;1.38;68.14;102315.59;1717094;81;21136;-80
2020/12/18 05:06:16;;;;;;;15.48;10.72;;;;;;;1.32;68.16;102315.58;1700123;81;21049;-78
2020/12/18 05:08:45;;;;;;;15.30;10.98;;;;;;;1.28;68.33;102321.58;1698799;83;21540;-79
2020/12/18 05:11:23;;;;;;;15.38;11.00;;;;;;;1.27;68.53;102325.00;1678375;81;21523;-80
2020/12/18 05:13:55;;;;;;;19.40;12.50;;;;;;;1.25;68.45;102322.43;1713965;81;21061;-81
2020/12/18 05:16:24;;;;;;;23.10;16.40;;;;;;;1.23;68.78;102324.14;1702819;82;21069;-80
2020/12/18 05:18:55;;;;;;;25.65;16.23;;;;;;;1.27;69.13;102328.87;1720020;81;22879;-80
2020/12/18 05:21:29;;;;;;;20.62;15.38;;;;;;;1.33;69.04;102335.38;1684698;82;21591;-79
2020/12/18 05:23:59;;;;;;;21.27;14.47;;;;;;;1.37;68.86;102337.99;1690791;81;21097;-80
2020/12/18 05:26:33;;;;;;;18.53;13.13;;;;;;;1.37;68.79;102338.42;1689379;82;20995;-79
2020/12/18 05:29:08;;;;;;;18.23;13.50;;;;;;;1.37;69.13;102335.84;1711062;82;21563;-81
2020/12/18 05:31:44;;;;;;;16.57;13.55;;;;;;;1.38;68.73;102335.86;1675123;81;22861;-84
2020/12/18 05:34:20;;;;;;;20.23;14.68;;;;;;;1.38;68.66;102341.03;1663047;82;20966;-79
2020/12/18 05:36:53;;;;;;;17.60;13.88;;;;;;;1.41;68.69;102346.64;1718416;81;21050;-79
2020/12/18 05:39:23;;;;;;;17.77;13.95;;;;;;;1.43;68.61;102340.62;1682776;82;20959;-82
2020/12/18 05:42:02;;;;;;;19.73;14.68;;;;;;;1.45;68.47;102336.77;1721470;81;20946;-81
2020/12/18 05:44:33;;;;;;;28.20;16.35;;;;;;;1.47;68.52;102343.20;1709990;82;21106;-81
2020/12/18 05:47:12;;;;;;;22.87;18.55;;;;;;;1.49;68.52;102345.37;1676131;81;21125;-81
2020/12/18 05:49:42;;;;;;;23.32;17.02;;;;;;;1.49;68.42;102344.09;1728210;81;21126;-82
2020/12/18 05:52:20;;;;;;;20.80;16.97;;;;;;;1.49;68.51;102340.21;1678444;83;20979;-82
2020/12/18 05:54:50;;;;;;;18.85;14.50;;;;;;;1.49;68.37;102344.09;1688192;82;21501;-83
2020/12/18 05:57:19;;;;;;;22.50;16.27;;;;;;;1.47;68.28;102346.69;1720958;81;22089;-83
2020/12/18 05:59:50;;;;;;;18.85;15.55;;;;;;;1.45;68.33;102347.95;1699563;81;21026;-78
2020/12/18 06:02:19;;;;;;;26.73;18.90;;;;;;;1.43;68.47;102350.10;1674984;83;21011;-83
2020/12/18 06:05:03;;;;;;;32.40;19.77;;;;;;;1.41;68.47;102347.50;1694789;82;21058;-81
2020/12/18 06:10:14;;;;;;;28.45;17.82;;;;;;;1.46;68.74;102347.52;1777671;78;22674;-79
2020/12/18 06:12:52;;;;;;;31.45;20.85;;;;;;;1.41;68.83;102351.81;1708418;82;20947;-78
2020/12/18 06:15:20;;;;;;;24.32;17.23;;;;;;;1.40;68.97;102357.41;1720908;82;20947;-80
2020/12/18 06:17:49;;;;;;;26.12;20.08;;;;;;;1.42;68.94;102357.00;1720743;82;20975;-78
2020/12/18 06:20:19;;;;;;;24.47;17.60;;;;;;;1.40;68.88;102353.94;1720608;80;20935;-79
2020/12/18 06:26:00;;;;;;;20.65;16.67;;;;;;;1.40;69.09;102356.13;1744105;81;20909;-82
2020/12/18 06:28:49;;;;;;;25.12;19.15;;;;;;;1.46;70.68;102368.20;1697382;82;21158;-82
2020/12/18 06:31:32;;;;;;;25.65;18.62;;;;;;;1.53;70.22;102370.40;1716865;82;21373;-82
2020/12/18 06:34:29;;;;;;;28.52;18.30;;;;;;;1.56;69.73;102370.00;1697956;82;20952;-81
2020/12/18 06:37:30;;;;;;;23.30;15.78;;;;;;;1.68;69.43;102373.07;1776400;79;22721;-80
2020/12/18 06:40:02;;;;;;;24.07;17.73;;;;;;;1.65;69.16;102369.19;1720628;82;20971;-83
2020/12/18 06:46:05;;;;;;;30.88;21.68;;;;;;;1.61;68.75;102377.34;1749953;81;20971;-82
2020/12/18 06:48:51;;;;;;;27.52;19.02;;;;;;;1.62;69.09;102373.92;1716194;82;20963;-81
2020/12/18 06:51:31;;;;;;;23.25;15.05;;;;;;;1.65;68.67;102378.23;1722605;80;21436;-83
2020/12/18 06:54:29;;;;;;;;;;;;;;;1.60;69.20;102375.63;1753377;81;20931;-80
2020/12/18 06:57:20;;;;;;;33.25;19.87;;;;;;;1.68;69.35;102381.27;1749817;82;21219;-79
2020/12/18 06:59:51;;;;;;;28.10;19.65;;;;;;;1.71;69.15;102391.17;1720318;82;20935;-81
2020/12/18 07:02:35;;;;;;;28.67;18.23;;;;;;;1.76;69.13;102392.52;1720511;82;20963;-79
2020/12/18 07:05:05;;;;;;;29.90;19.85;;;;;;;1.76;68.84;102391.23;1720408;82;21066;-82
2020/12/18 07:07:42;;;;;;;25.30;17.90;;;;;;;1.76;68.75;102386.91;1720803;82;21038;-81
2020/12/18 07:10:10;;;;;;;26.57;20.15;;;;;;;1.74;68.60;102386.04;1720883;82;20990;-81
2020/12/18 07:12:39;;;;;;;27.60;18.23;;;;;;;1.75;68.67;102393.36;1723757;81;20959;-78
2020/12/18 07:15:09;;;;;;;29.07;19.48;;;;;;;1.74;68.77;102395.53;1723825;82;20983;-80
2020/12/18 07:17:45;;;;;;;24.25;16.02;;;;;;;1.75;68.52;102396.81;1723694;82;21039;-80
2020/12/18 07:20:16;;;;;;;24.18;16.50;;;;;;;1.75;68.36;102401.12;1723102;80;20892;-80
2020/12/18 07:22:45;;;;;;;22.40;14.15;;;;;;;1.73;68.18;102401.10;1723746;80;21187;-82
2020/12/18 07:25:13;;;;;;;26.40;17.77;;;;;;;1.72;67.97;102398.09;1721810;82;21469;-81
2020/12/18 07:27:41;;;;;;;24.15;16.32;;;;;;;1.72;67.87;102406.29;1734315;80;20961;-77
2020/12/18 07:30:11;;;;;;;21.07;15.10;;;;;;;1.72;68.17;102406.29;1743196;81;20981;-78
2020/12/18 07:32:40;;;;;;;20.40;15.25;;;;;;;1.72;68.39;102403.27;1743093;81;21034;-83
2020/12/18 07:35:08;;;;;;;21.40;15.60;;;;;;;1.71;68.14;102404.11;1718847;81;21927;-79
2020/12/18 07:37:42;;;;;;;19.12;14.05;;;;;;;1.70;67.90;102402.83;1743001;81;21422;-79
2020/12/18 07:40:10;;;;;;;21.87;15.32;;;;;;;1.68;67.96;102399.36;1743093;80;20973;-80
2020/12/18 07:42:40;;;;;;;23.52;16.02;;;;;;;1.68;68.08;102407.13;1743606;80;21080;-81
2020/12/18 07:45:13;;;;;;;18.32;14.05;;;;;;;1.68;67.95;102398.93;1743755;81;20921;-82
2020/12/18 07:47:41;;;;;;;24.05;15.85;;;;;;;1.68;67.75;102398.93;1743362;81;21694;-82
2020/12/18 07:50:10;;;;;;;21.45;15.28;;;;;;;1.70;67.89;102396.36;1742634;81;20930;-81
2020/12/18 07:52:38;;;;;;;15.20;12.68;;;;;;;1.72;67.85;102398.09;1742656;81;21009;-80
2020/12/18 07:55:06;;;;;;;19.00;13.70;;;;;;;1.71;67.87;102398.94;1742585;81;21037;-80
2020/12/18 07:57:34;;;;;;;15.40;11.48;;;;;;;1.70;67.87;102402.39;1743519;81;20969;-80
2020/12/18 08:00:09;;;;;;;18.73;12.78;;;;;;;1.71;68.00;102405.83;1744734;81;21360;-80
2020/12/18 08:02:40;;;;;;;16.25;11.03;;;;;;;1.71;67.97;102411.01;1744615;81;20989;-82
2020/12/18 08:05:09;;;;;;;18.07;12.03;;;;;;;1.69;67.77;102411.42;1744657;81;21016;-80
2020/12/18 08:07:39;;;;;;;16.27;12.23;;;;;;;1.64;67.85;102406.23;1745378;80;21070;-77
2020/12/18 08:10:08;;;;;;;25.55;14.03;;;;;;;1.57;68.01;102404.47;1745643;81;20997;-81
2020/12/18 08:12:38;;;;;;;19.87;13.10;;;;;;;1.57;68.29;102406.63;1744812;81;22927;-82
2020/12/18 08:15:15;;;;;;;22.02;15.60;;;;;;;1.55;68.46;102407.03;1720449;80;21049;-79
2020/12/18 08:17:45;;;;;;;17.90;12.98;;;;;;;1.55;68.43;102404.88;1742482;81;20965;-82
2020/12/18 08:20:14;;;;;;;21.75;13.30;;;;;;;1.56;68.44;102404.91;1742976;80;21395;-83
2020/12/18 08:22:47;;;;;;;18.27;13.95;;;;;;;1.60;68.46;102407.06;1742863;81;20974;-84
2020/12/18 08:25:17;;;;;;;20.97;14.47;;;;;;;1.62;68.37;102401.47;1743016;81;21060;-85
2020/12/18 08:27:48;;;;;;;25.90;15.60;;;;;;;1.67;68.36;102406.27;1741338;81;21096;-87
2020/12/18 08:30:19;;;;;;;17.23;12.33;;;;;;;1.70;68.38;102406.70;1716641;81;21016;-89
2020/12/18 08:32:55;;;;;;;17.48;12.15;;;;;;;1.73;68.39;102407.56;1739939;80;20934;-82
2020/12/18 08:35:26;;;;;;;16.90;12.90;;;;;;;1.75;68.40;102403.70;1740487;81;21621;-86
2020/12/18 08:37:58;;;;;;;19.25;13.98;;;;;;;1.80;68.32;102401.59;1740111;80;21891;-84
2020/12/18 08:40:26;;;;;;;22.27;15.72;;;;;;;1.81;68.36;102395.55;1731070;81;21415;-81
2020/12/18 08:43:00;;;;;;;22.52;14.95;;;;;;;1.84;68.35;102397.28;1739804;81;20993;-81
2020/12/18 08:45:29;;;;;;;21.73;13.75;;;;;;;1.85;68.41;102395.15;1740409;81;21021;-88
2020/12/18 08:47:57;;;;;;;23.55;13.93;;;;;;;1.85;68.10;102394.72;1740429;81;21041;-88
2020/12/18 08:50:25;;;;;;;19.52;13.60;;;;;;;1.84;68.05;102390.81;1739987;81;21092;-88
2020/12/18 08:52:54;;;;;;;20.43;13.68;;;;;;;1.84;67.97;102395.98;1740618;80;21237;-86
2020/12/18 08:55:23;;;;;;;16.97;13.18;;;;;;;1.84;67.99;102389.09;1742834;81;20929;-89
2020/12/18 08:57:51;;;;;;;22.98;14.18;;;;;;;1.85;67.99;102387.39;1741212;80;20973;-88
2020/12/18 09:00:20;;;;;;;22.55;14.40;;;;;;;1.86;68.07;102383.93;1717874;81;20930;-91
2020/12/18 09:02:55;;;;;;;18.02;13.43;;;;;;;1.89;68.04;102381.78;1740592;81;21454;-91
2020/12/18 09:05:31;;;;;;;21.37;13.88;;;;;;;1.92;67.92;102380.09;1740157;80;20989;-90
2020/12/18 09:08:03;;;;;;;17.02;11.48;;;;;;;1.95;68.07;102371.47;1768502;80;20949;-88
2020/12/18 09:10:45;;;;;;;17.10;11.93;;;;;;;1.98;67.98;102375.34;1768172;80;20950;-87
2020/12/18 09:13:26;;;;;;;20.95;12.50;;;;;;;1.99;67.86;102370.62;1740127;81;21517;-87
2020/12/18 09:16:07;;;;;;;23.30;14.25;;;;;;;2.01;67.78;102369.77;1740007;81;22013;-90
2020/12/18 09:18:38;;;;;;;16.48;11.70;;;;;;;2.06;67.87;102369.78;1740196;81;21146;-90
2020/12/18 09:21:14;;;;;;;20.45;13.30;;;;;;;2.13;67.81;102370.23;1740189;81;20997;-88
2020/12/18 09:23:49;;;;;;;17.73;13.43;;;;;;;2.17;67.65;102368.09;1739905;81;20989;-88
2020/12/18 09:26:25;;;;;;;20.48;14.20;;;;;;;2.23;67.61;102365.97;1739639;81;21028;-92
2020/12/18 09:29:00;;;;;;;18.37;11.60;;;;;;;2.32;67.41;102373.75;1724349;81;21679;-95
2020/12/18 09:35:27;;;;;;;17.45;12.73;;;;;;;2.38;66.97;102372.89;1607913;86;21023;-96
2020/12/18 09:38:31;;;;;;;30.65;17.98;;;;;;;2.45;67.07;102369.04;1850488;77;22737;-94
2020/12/18 09:41:05;;;;;;;36.40;19.17;;;;;;;2.42;66.89;102363.87;1816688;79;20991;-90
2020/12/18 09:43:34;;;;;;;23.40;16.00;;;;;;;2.45;66.99;102368.18;1712296;82;21167;-76
2020/12/18 09:46:06;;;;;;;17.60;12.47;;;;;;;2.46;66.83;102371.19;1714255;82;21605;-78
2020/12/18 09:48:36;;;;;;;18.27;12.37;;;;;;;2.48;66.70;102365.15;1713931;82;21087;-76
2020/12/18 09:51:04;;;;;;;17.57;13.32;;;;;;;2.51;66.62;102368.17;1713956;82;21113;-79
2020/12/18 09:53:32;;;;;;;17.50;13.08;;;;;;;2.54;66.49;102367.34;1714066;82;21439;-78
2020/12/18 09:56:01;;;;;;;20.10;12.70;;;;;;;2.55;66.18;102367.75;1714275;82;21582;-81
2020/12/18 09:58:30;;;;;;;21.45;14.28;;;;;;;2.55;66.30;102363.43;1745662;81;21067;-82
2020/12/18 10:01:01;;;;;;;23.83;14.70;;;;;;;2.57;66.24;102356.53;1714284;82;21462;-82
2020/12/18 10:03:30;;;;;;;19.35;14.70;;;;;;;2.59;66.39;102364.31;1714094;82;20933;-82
2020/12/18 10:05:58;;;;;;;19.25;13.90;;;;;;;2.58;66.49;102363.45;1714077;82;20980;-84
2020/12/18 10:08:28;;;;;;;20.12;14.35;;;;;;;2.57;66.49;102359.13;1714359;81;21169;-84
2020/12/18 10:10:56;;;;;;;17.57;13.32;;;;;;;2.56;66.38;102357.41;1714240;82;20992;-83
2020/12/18 10:13:25;;;;;;;23.57;15.72;;;;;;;2.52;66.27;102354.81;1714461;81;21082;-82
2020/12/18 10:15:53;;;;;;;21.87;13.50;;;;;;;2.51;66.33;102347.45;1714155;81;21076;-82
2020/12/18 10:31:36;;;;;;;27.48;14.38;;;;;;;2.61;66.76;102334.10;1842118;76;23262;-80
2020/12/18 10:34:23;;;;;;;21.07;13.90;;;;;;;2.63;66.67;102331.94;1846217;76;22747;-82
2020/12/18 10:36:53;;;;;;;21.80;14.68;;;;;;;2.59;66.52;102333.23;1786430;79;20903;-82
2020/12/18 10:39:25;;;;;;;25.25;13.55;;;;;;;2.58;66.46;102336.67;1785258;79;21165;-81
2020/12/18 10:41:55;;;;;;;68.07;17.17;;;;;;;2.54;66.44;102332.38;1785750;79;21066;-83
2020/12/18 10:44:23;;;;;;;22.07;13.53;;;;;;;2.50;66.46;102332.80;1785226;79;20970;-80
2020/12/18 10:46:52;;;;;;;19.42;14.10;;;;;;;2.48;66.45;102330.19;1786224;79;20950;-80
2020/12/18 10:49:21;;;;;;;73.57;16.85;;;;;;;2.44;66.56;102331.05;1786285;79;21006;-82
2020/12/18 10:51:50;;;;;;;22.02;13.15;;;;;;;2.43;66.49;102332.36;1784931;79;21111;-79
2020/12/18 10:54:18;;;;;;;17.32;12.35;;;;;;;2.40;66.58;102328.05;1786319;79;21014;-80
2020/12/18 10:56:51;;;;;;;14.25;11.08;;;;;;;2.37;66.88;102326.72;1786212;79;20971;-83
2020/12/18 10:59:19;;;;;;;16.25;13.03;;;;;;;2.32;66.94;102325.87;1784683;79;20986;-80
2020/12/18 11:01:52;;;;;;;18.80;11.70;;;;;;;2.25;67.06;102327.58;1784922;79;20982;-81
2020/12/18 11:04:20;;;;;;;24.20;14.60;;;;;;;2.17;67.17;102317.63;1784966;79;21232;-82
2020/12/18 11:06:49;;;;;;;18.10;13.03;;;;;;;2.10;67.37;102327.54;1818293;79;20982;-77
2020/12/18 11:09:17;;;;;;;22.67;15.63;;;;;;;2.04;67.72;102324.92;1786281;79;20971;-78
2020/12/18 11:11:52;;;;;;;16.73;12.95;;;;;;;2.04;67.90;102323.63;1785161;79;21025;-77
2020/12/18 11:14:21;;;;;;;18.73;13.65;;;;;;;2.02;67.92;102324.94;1786451;79;20943;-77
2020/12/18 11:16:54;;;;;;;19.20;12.00;;;;;;;2.02;67.99;102322.77;1786564;79;21905;-78
2020/12/18 11:19:23;;;;;;;18.75;12.30;;;;;;;2.02;67.84;102313.70;1784940;79;20927;-78
2020/12/18 11:21:51;;;;;;;16.52;12.07;;;;;;;2.06;67.81;102326.66;1786527;79;20946;-78
2020/12/18 11:24:20;;;;;;;20.43;15.03;;;;;;;2.08;67.82;102326.23;1784868;79;21400;-77
2020/12/18 11:26:52;;;;;;;20.52;14.35;;;;;;;2.08;67.78;102329.25;1785040;79;20982;-76
2020/12/18 11:29:20;;;;;;;21.70;15.08;;;;;;;2.08;67.72;102329.25;1786378;79;21145;-78
2020/12/18 11:31:48;;;;;;;21.90;15.48;;;;;;;2.09;67.72;102327.12;1784972;79;20993;-78
2020/12/18 11:34:19;;;;;;;23.38;15.35;;;;;;;2.07;67.75;102329.69;1804315;78;21431;-78
2020/12/18 11:36:49;;;;;;;27.20;18.02;;;;;;;2.06;67.83;102324.06;1835928;78;20925;-78
2020/12/18 11:39:23;;;;;;;25.88;17.30;;;;;;;2.02;67.95;102322.77;1808261;75;20954;-78
2020/12/18 11:41:52;;;;;;;30.43;19.25;;;;;;;2.02;68.04;102324.94;1830359;77;21061;-78
2020/12/18 11:44:21;;;;;;;26.62;16.97;;;;;;;2.02;68.19;102330.12;1776102;79;20949;-84
2020/12/18 11:46:50;;;;;;;37.75;25.27;;;;;;;2.01;68.31;102324.49;1775668;79;20925;-80
2020/12/18 11:49:19;;;;;;;94.28;47.15;;;;;;;2.02;68.54;102324.05;1775493;79;20949;-78
2020/12/18 11:51:47;;;;;;;52.65;30.40;;;;;;;2.02;68.48;102321.06;1775465;79;20937;-79
2020/12/18 11:54:16;;;;;;;56.58;32.63;;;;;;;2.02;68.37;102326.23;1775521;79;21008;-82
2020/12/18 11:56:50;;;;;;;54.08;30.92;;;;;;;2.01;68.25;102323.64;1775418;78;20977;-81
2020/12/18 11:59:18;;;;;;;44.48;28.25;;;;;;;2.01;68.27;102327.08;1775858;79;20921;-80
2020/12/18 12:01:46;;;;;;;33.13;20.77;;;;;;;2.00;68.37;102322.78;1776007;79;21351;-82
2020/12/18 12:04:15;;;;;;;35.73;21.60;;;;;;;1.97;68.30;102321.89;1776103;78;21028;-81
2020/12/18 12:06:43;;;;;;;30.92;21.23;;;;;;;1.91;68.38;102320.13;1775577;79;22886;-82
2020/12/18 12:09:15;;;;;;;32.40;20.95;;;;;;;1.84;68.84;102320.98;1801857;78;21048;-84